Time;durP1;ratioP1;P1;durP2;ratioP2;P2;SDS_P1;SDS_P2;PMS_P1;PMS_P2;Temp;Humidity;BMP_temperature;BMP_pressure;BME280_temperature;BME280_humidity;BME280_pressure;Samples;Min_cycle;Max_cycle;Signal;HPM_P1;HPM_P2
2022/05/10 00:01:37;;;;;;;5.43;3.28;;;14.10;99.90;;;;;;5035455;28;20127;-67
2022/05/10 00:04:04;;;;;;;7.07;2.97;;;14.10;99.90;;;;;;5029756;28;20045;-67
2022/05/10 00:06:38;;;;;;;5.47;3.13;;;14.10;99.90;;;;;;5014839;28;20096;-66
2022/05/10 00:09:05;;;;;;;5.80;2.75;;;14.10;99.90;;;;;;5026956;28;20667;-67
2022/05/10 00:11:31;;;;;;;5.85;3.13;;;14.00;99.90;;;;;;5022915;28;20047;-67
2022/05/10 00:13:56;;;;;;;6.70;3.13;;;14.00;99.90;;;;;;5036279;28;20053;-67
2022/05/10 00:16:22;;;;;;;6.25;3.22;;;14.00;99.90;;;;;;5039756;28;20033;-67
2022/05/10 00:18:48;;;;;;;6.63;3.57;;;14.00;99.90;;;;;;5034724;28;20509;-67
2022/05/10 00:21:19;;;;;;;6.18;3.10;;;14.00;99.90;;;;;;5014863;28;20921;-67
2022/05/10 00:23:45;;;;;;;5.05;2.50;;;13.90;99.90;;;;;;5042860;28;20098;-67
2022/05/10 00:26:11;;;;;;;5.55;3.10;;;13.90;99.90;;;;;;5040216;28;20049;-67
2022/05/10 00:28:39;;;;;;;5.28;2.67;;;13.90;99.90;;;;;;5043516;28;20095;-67
2022/05/10 00:31:06;;;;;;;7.43;3.10;;;13.80;99.90;;;;;;5015408;28;20041;-67
2022/05/10 00:33:32;;;;;;;7.28;3.25;;;13.90;99.90;;;;;;5038205;28;20388;-67
2022/05/10 00:35:58;;;;;;;6.75;3.10;;;13.80;99.90;;;;;;5040175;28;20125;-67
2022/05/10 00:38:32;;;;;;;5.15;2.47;;;13.80;99.90;;;;;;5041224;28;20513;-67
2022/05/10 00:41:07;;;;;;;7.35;3.00;;;13.80;99.90;;;;;;5075589;22;20085;-71
2022/05/10 00:43:40;;;;;;;6.10;3.03;;;13.80;99.90;;;;;;5051841;28;20234;-71
2022/05/10 00:46:22;;;;;;;6.30;2.90;;;13.80;99.90;;;;;;5050938;28;20357;-71
2022/05/10 00:49:17;;;;;;;6.75;2.83;;;13.80;99.90;;;;;;5035929;28;20045;-71
2022/05/10 00:51:48;;;;;;;3.83;2.90;;;13.70;99.90;;;;;;5036810;28;20114;-71
2022/05/10 00:54:51;;;;;;;9.20;3.47;;;13.70;99.90;;;;;;5023598;28;20045;-71
2022/05/10 00:57:39;;;;;;;6.72;3.17;;;13.70;99.90;;;;;;4994808;28;20523;-71
2022/05/10 01:00:23;;;;;;;4.57;2.70;;;13.70;99.90;;;;;;5037806;28;20041;-71
2022/05/10 01:03:11;;;;;;;4.30;3.03;;;13.60;99.90;;;;;;5036345;28;20056;-71
2022/05/10 01:05:47;;;;;;;7.13;3.55;;;13.60;99.90;;;;;;5030711;28;20095;-71
2022/05/10 01:08:45;;;;;;;9.05;3.53;;;13.60;99.90;;;;;;5021583;28;20045;-71
2022/05/10 01:11:21;;;;;;;7.63;3.30;;;13.50;99.90;;;;;;5027184;28;20040;-71
2022/05/10 01:14:14;;;;;;;4.88;2.88;;;13.50;99.90;;;;;;5018860;28;20034;-71
2022/05/10 01:16:40;;;;;;;8.80;3.65;;;13.50;99.90;;;;;;5041229;28;20043;-71
2022/05/10 01:19:05;;;;;;;5.60;3.20;;;13.50;99.90;;;;;;5035780;28;20033;-71
2022/05/10 01:21:56;;;;;;;11.47;4.43;;;13.50;99.90;;;;;;5016682;28;20028;-70
2022/05/10 01:24:33;;;;;;;5.88;3.95;;;13.50;99.90;;;;;;5033801;28;20357;-70
2022/05/10 01:27:18;;;;;;;9.02;3.60;;;13.40;99.90;;;;;;5022531;28;20227;-70
2022/05/10 01:29:58;;;;;;;5.50;3.55;;;13.40;99.90;;;;;;5046363;28;20481;-70
2022/05/10 01:35:22;;;;;;;8.60;4.03;;;13.50;99.90;;;;;;5021280;28;20213;-70
2022/05/10 01:37:52;;;;;;;8.75;3.88;;;13.40;99.90;;;;;;5025004;28;20083;-71
2022/05/10 01:40:26;;;;;;;6.55;3.60;;;13.40;99.90;;;;;;5021681;28;20138;-69
2022/05/10 01:42:58;;;;;;;7.03;3.30;;;13.40;99.90;;;;;;5035218;28;20025;-70
2022/05/10 01:45:45;;;;;;;7.13;3.55;;;13.50;99.90;;;;;;5023898;28;20053;-70
2022/05/10 01:48:23;;;;;;;7.50;4.07;;;13.50;99.90;;;;;;5035349;28;20034;-70
2022/05/10 01:50:58;;;;;;;6.82;4.35;;;13.50;99.90;;;;;;5042989;28;20053;-70
2022/05/10 01:53:38;;;;;;;7.43;3.95;;;13.50;99.90;;;;;;5018252;28;20052;-71
2022/05/10 01:56:14;;;;;;;12.60;4.15;;;13.50;99.90;;;;;;5042617;28;20473;-70
2022/05/10 01:58:42;;;;;;;9.77;4.65;;;13.50;99.90;;;;;;5039916;28;20041;-71
2022/05/10 02:01:17;;;;;;;8.45;4.38;;;13.60;99.90;;;;;;5041587;28;20044;-70
2022/05/10 02:04:03;;;;;;;6.93;3.83;;;13.60;99.90;;;;;;5039295;28;20128;-70
2022/05/10 02:06:44;;;;;;;7.22;4.53;;;13.60;99.90;;;;;;5008890;28;20063;-71
2022/05/10 02:09:09;;;;;;;8.88;4.20;;;13.60;99.90;;;;;;4988515;28;20473;-70
2022/05/10 02:11:40;;;;;;;8.77;4.77;;;13.60;99.90;;;;;;5004234;28;20110;-71
2022/05/10 02:14:08;;;;;;;8.95;4.70;;;13.60;99.90;;;;;;5019386;28;20695;-71
2022/05/10 02:16:56;;;;;;;6.88;3.80;;;13.60;99.90;;;;;;5028439;28;20076;-71
2022/05/10 02:19:24;;;;;;;11.25;4.78;;;13.70;99.90;;;;;;5035286;28;20033;-70
2022/05/10 02:21:57;;;;;;;11.73;4.03;;;13.60;99.90;;;;;;5032135;28;20132;-71
2022/05/10 02:24:52;;;;;;;7.50;4.32;;;13.60;99.90;;;;;;5042506;28;20082;-70
2022/05/10 02:27:26;;;;;;;8.90;4.55;;;13.60;99.90;;;;;;5015517;28;20446;-70
2022/05/10 02:29:59;;;;;;;10.85;4.55;;;13.70;99.90;;;;;;5029288;28;20164;-70
2022/05/10 02:35:17;;;;;;;7.95;3.78;;;13.70;99.90;;;;;;5020051;28;20057;-70
2022/05/10 02:37:43;;;;;;;6.68;3.88;;;13.60;99.90;;;;;;5040579;28;20448;-69
2022/05/10 02:40:09;;;;;;;6.53;4.00;;;13.70;99.90;;;;;;5042480;28;20037;-70
2022/05/10 02:42:35;;;;;;;10.10;3.90;;;13.60;99.90;;;;;;5045857;28;20055;-70
2022/05/10 02:45:02;;;;;;;;;;;13.70;99.90;;;;;;5039377;28;20040;-69
2022/05/10 02:47:40;;;;;;;7.55;4.38;;;13.70;99.90;;;;;;5037548;28;20337;-70
2022/05/10 02:50:30;;;;;;;5.38;3.70;;;13.70;99.90;;;;;;5040596;28;20328;-71
2022/05/10 02:52:55;;;;;;;5.57;3.75;;;13.70;99.90;;;;;;5032752;28;20064;-70
2022/05/10 02:55:49;;;;;;;6.63;4.57;;;13.70;99.90;;;;;;5047085;28;20465;-70
2022/05/10 02:58:28;;;;;;;6.70;3.30;;;13.70;99.90;;;;;;5029695;28;20299;-70
2022/05/10 03:01:00;;;;;;;6.50;3.90;;;13.70;99.90;;;;;;5018835;28;20089;-70
2022/05/10 03:03:28;;;;;;;7.93;3.88;;;13.60;99.90;;;;;;5036856;28;20398;-70
2022/05/10 03:05:54;;;;;;;5.68;3.38;;;13.60;99.90;;;;;;5018453;28;20056;-70
2022/05/10 03:08:21;;;;;;;6.28;3.70;;;13.70;99.90;;;;;;5044674;28;20272;-70
2022/05/10 03:10:47;;;;;;;7.22;3.90;;;13.60;99.90;;;;;;5040321;28;20037;-71
2022/05/10 03:13:13;;;;;;;6.95;4.03;;;13.60;99.90;;;;;;5018696;28;20125;-70
2022/05/10 03:15:39;;;;;;;8.60;3.67;;;13.60;99.90;;;;;;5009919;28;20033;-70
2022/05/10 03:18:05;;;;;;;7.65;3.78;;;13.60;99.90;;;;;;5015710;28;20128;-71
2022/05/10 03:20:31;;;;;;;7.25;3.95;;;13.60;99.90;;;;;;5017357;28;20128;-71
2022/05/10 03:22:58;;;;;;;6.45;3.60;;;13.60;99.90;;;;;;5032772;28;20298;-71
2022/05/10 03:25:24;;;;;;;7.78;3.95;;;13.60;99.90;;;;;;5033352;28;20045;-71
2022/05/10 03:27:50;;;;;;;4.95;3.50;;;13.60;99.90;;;;;;5027155;28;20041;-71
2022/05/10 03:30:16;;;;;;;7.63;3.67;;;13.70;99.90;;;;;;5030730;28;20043;-71
2022/05/10 03:32:42;;;;;;;6.47;3.47;;;13.70;99.90;;;;;;5040761;28;20287;-71
2022/05/10 03:35:08;;;;;;;7.90;4.18;;;13.70;99.90;;;;;;5043695;28;20458;-71
2022/05/10 03:37:34;;;;;;;5.93;3.22;;;13.70;99.90;;;;;;5018657;28;20029;-71
2022/05/10 03:39:59;;;;;;;9.40;4.00;;;13.70;99.90;;;;;;5035168;28;20040;-70
2022/05/10 03:42:25;;;;;;;7.65;3.65;;;13.70;99.90;;;;;;5019927;28;20303;-71
2022/05/10 03:44:54;;;;;;;8.10;4.05;;;13.80;99.90;;;;;;5040950;28;20037;-71
2022/05/10 03:47:30;;;;;;;6.15;3.60;;;13.80;99.90;;;;;;5042744;28;20408;-71
2022/05/10 03:49:56;;;;;;;5.55;3.28;;;13.70;99.90;;;;;;5034611;28;20332;-71
2022/05/10 03:52:22;;;;;;;8.65;3.92;;;13.80;99.90;;;;;;5018726;28;20045;-71
2022/05/10 03:54:47;;;;;;;6.57;3.97;;;13.80;99.90;;;;;;5037435;28;20067;-70
2022/05/10 03:57:13;;;;;;;5.90;3.57;;;13.80;99.90;;;;;;5039070;28;20041;-71
2022/05/10 03:59:41;;;;;;;6.67;4.20;;;13.80;99.90;;;;;;5037450;28;20026;-71
2022/05/10 04:02:09;;;;;;;5.28;3.55;;;13.80;99.90;;;;;;5031314;28;20669;-71
2022/05/10 04:04:35;;;;;;;8.13;3.88;;;13.80;99.90;;;;;;5039353;28;20045;-71
2022/05/10 04:07:00;;;;;;;8.55;4.40;;;13.80;99.90;;;;;;5019394;28;20045;-71
2022/05/10 04:09:26;;;;;;;8.27;4.20;;;13.80;99.90;;;;;;5041683;28;20029;-70
2022/05/10 04:11:52;;;;;;;8.70;3.90;;;13.90;99.90;;;;;;5039765;28;20133;-71
2022/05/10 04:14:20;;;;;;;12.90;5.00;;;13.90;99.90;;;;;;5026039;28;20045;-71
2022/05/10 04:16:47;;;;;;;8.20;3.92;;;13.90;99.90;;;;;;5032452;28;20038;-71
2022/05/10 04:19:13;;;;;;;7.45;4.22;;;13.90;99.90;;;;;;5043266;28;20040;-71
2022/05/10 04:21:38;;;;;;;8.27;3.90;;;13.90;99.90;;;;;;5038852;28;20204;-71
2022/05/10 04:24:04;;;;;;;7.40;4.27;;;14.00;99.90;;;;;;5023696;28;20136;-71
2022/05/10 04:26:30;;;;;;;8.38;3.83;;;14.00;99.90;;;;;;5038762;28;20945;-71
2022/05/10 04:28:57;;;;;;;7.73;3.80;;;14.00;99.90;;;;;;5040954;28;20200;-70
2022/05/10 04:31:23;;;;;;;8.27;3.97;;;14.10;99.90;;;;;;5031485;28;20291;-71
2022/05/10 04:33:48;;;;;;;13.25;4.63;;;14.10;99.90;;;;;;5039816;28;20056;-71
2022/05/10 04:36:14;;;;;;;9.47;4.60;;;14.10;99.90;;;;;;5033623;28;20034;-71
2022/05/10 04:38:40;;;;;;;9.73;4.32;;;14.10;99.90;;;;;;5042093;28;20048;-71
2022/05/10 04:41:26;;;;;;;7.97;4.50;;;14.20;99.90;;;;;;5032299;28;20048;-71
2022/05/10 04:43:58;;;;;;;8.38;4.43;;;14.20;99.90;;;;;;5030830;28;20352;-71
2022/05/10 04:46:24;;;;;;;6.90;4.57;;;14.20;99.90;;;;;;5040224;28;20044;-71
2022/05/10 04:48:50;;;;;;;7.40;4.32;;;14.30;99.90;;;;;;5039060;28;20052;-71
2022/05/10 04:51:16;;;;;;;7.25;3.78;;;14.30;99.90;;;;;;5010155;28;20111;-71
2022/05/10 04:53:42;;;;;;;8.52;4.20;;;14.30;99.90;;;;;;5041318;28;20034;-71
2022/05/10 04:56:07;;;;;;;8.40;4.10;;;14.30;99.90;;;;;;5045021;28;20040;-71
2022/05/10 04:58:34;;;;;;;8.17;3.90;;;14.30;99.90;;;;;;5040064;28;20033;-71
2022/05/10 05:01:04;;;;;;;;;;;14.40;99.90;;;;;;5039348;28;20470;-71
2022/05/10 05:03:29;;;;;;;7.00;4.40;;;14.40;99.90;;;;;;5040257;28;19917;-71
2022/05/10 05:05:55;;;;;;;10.10;4.70;;;14.30;99.90;;;;;;5038438;28;21714;-71
2022/05/10 05:08:21;;;;;;;8.60;4.57;;;14.40;99.90;;;;;;5016027;28;20038;-71
2022/05/10 05:10:46;;;;;;;10.17;4.70;;;14.40;99.90;;;;;;5036411;28;20049;-71
2022/05/10 05:13:16;;;;;;;8.48;4.05;;;14.40;99.90;;;;;;5031240;28;20037;-71
2022/05/10 05:15:42;;;;;;;9.40;4.25;;;14.50;99.90;;;;;;5041276;28;20063;-71
2022/05/10 05:18:09;;;;;;;7.03;4.43;;;14.50;99.90;;;;;;5020649;28;20033;-71
2022/05/10 05:20:36;;;;;;;8.35;4.18;;;14.50;99.90;;;;;;5018451;28;20114;-71
2022/05/10 05:23:08;;;;;;;10.13;4.95;;;14.50;99.90;;;;;;5028996;28;20426;-71
2022/05/10 05:25:38;;;;;;;8.15;4.47;;;14.60;99.90;;;;;;5043280;28;20364;-71
2022/05/10 05:28:04;;;;;;;8.13;4.70;;;14.60;99.90;;;;;;5041132;28;20505;-72
2022/05/10 05:30:33;;;;;;;9.57;5.45;;;14.60;99.90;;;;;;5036022;28;20083;-71
2022/05/10 05:32:59;;;;;;;8.93;4.80;;;14.60;99.90;;;;;;5024447;28;20037;-71
2022/05/10 05:35:25;;;;;;;11.60;4.65;;;14.70;99.90;;;;;;5036597;28;20540;-71
2022/05/10 05:37:54;;;;;;;7.63;4.43;;;14.70;99.90;;;;;;5036776;28;20408;-71
2022/05/10 05:40:20;;;;;;;7.15;3.65;;;14.80;99.90;;;;;;5035233;28;20037;-72
2022/05/10 05:42:46;;;;;;;7.07;3.83;;;14.80;99.90;;;;;;5042087;28;20428;-70
2022/05/10 05:45:14;;;;;;;7.53;4.75;;;14.90;99.90;;;;;;5040538;28;20425;-71
2022/05/10 05:47:40;;;;;;;8.25;4.22;;;14.90;99.90;;;;;;5035571;28;20037;-71
2022/05/10 05:50:06;;;;;;;;;;;15.00;99.90;;;;;;5036108;28;20045;-71
2022/05/10 05:52:32;;;;;;;7.07;4.20;;;15.00;99.90;;;;;;5042376;28;19924;-71
2022/05/10 05:54:59;;;;;;;7.63;4.45;;;15.10;99.90;;;;;;5045063;28;20128;-71
2022/05/10 05:57:25;;;;;;;8.77;4.10;;;15.10;99.90;;;;;;5042263;28;20193;-71
2022/05/10 05:59:55;;;;;;;7.05;4.07;;;15.20;99.90;;;;;;5033097;28;20040;-71
2022/05/10 06:02:22;;;;;;;7.07;4.07;;;15.20;99.90;;;;;;5017848;28;20040;-71
2022/05/10 06:04:48;;;;;;;6.70;3.90;;;15.30;99.90;;;;;;5032553;28;20537;-71
2022/05/10 06:07:14;;;;;;;6.00;4.05;;;15.40;99.90;;;;;;5026893;28;20037;-71
2022/05/10 06:09:41;;;;;;;10.43;3.90;;;15.40;99.90;;;;;;5018757;28;20163;-71
2022/05/10 06:12:09;;;;;;;9.23;4.32;;;15.50;99.90;;;;;;5041456;28;20140;-71
2022/05/10 06:14:35;;;;;;;9.40;4.38;;;15.60;99.90;;;;;;5042479;28;20033;-71
2022/05/10 06:17:02;;;;;;;6.20;3.67;;;15.60;99.90;;;;;;5043765;28;20094;-71
2022/05/10 06:19:27;;;;;;;;;;;15.70;99.90;;;;;;5035905;28;20481;-68
2022/05/10 06:21:54;;;;;;;6.75;3.78;;;15.80;99.90;;;;;;5040925;28;19960;-68
2022/05/10 06:24:19;;;;;;;9.18;4.00;;;15.90;99.90;;;;;;5042346;28;20114;-68
2022/05/10 06:26:45;;;;;;;7.00;4.05;;;16.00;99.90;;;;;;5041799;28;20053;-68
2022/05/10 06:29:11;;;;;;;9.35;4.13;;;16.00;99.90;;;;;;5028632;28;20036;-72
2022/05/10 06:31:43;;;;;;;8.18;4.13;;;16.10;99.90;;;;;;5016050;28;20224;-71
2022/05/10 06:34:09;;;;;;;6.40;4.00;;;16.10;99.90;;;;;;5038423;28;20063;-69
2022/05/10 06:36:35;;;;;;;8.60;3.72;;;16.20;99.90;;;;;;5013802;28;20045;-69
2022/05/10 06:39:01;;;;;;;6.00;3.60;;;16.30;99.90;;;;;;5012293;28;20037;-71
2022/05/10 06:41:27;;;;;;;7.18;3.65;;;16.30;99.90;;;;;;5015508;28;20243;-68
2022/05/10 06:43:53;;;;;;;10.23;4.07;;;16.40;99.90;;;;;;5034585;28;20269;-68
2022/05/10 06:46:21;;;;;;;6.57;3.92;;;16.50;99.90;;;;;;5038734;28;20036;-68
2022/05/10 06:48:47;;;;;;;7.35;4.68;;;16.50;99.90;;;;;;5043259;28;20037;-68
2022/05/10 06:51:14;;;;;;;8.48;3.95;;;16.60;99.90;;;;;;5033049;28;20041;-70
2022/05/10 06:53:41;;;;;;;8.02;3.92;;;16.70;99.90;;;;;;5030672;28;20139;-70
2022/05/10 06:56:07;;;;;;;6.68;3.72;;;16.70;99.90;;;;;;5033414;28;20091;-69
2022/05/10 06:58:33;;;;;;;5.47;3.38;;;16.90;99.90;;;;;;5044206;28;20343;-71
2022/05/10 07:00:59;;;;;;;5.97;3.40;;;16.90;99.90;;;;;;5042622;28;20037;-72
2022/05/10 07:03:32;;;;;;;9.13;3.58;;;17.00;99.90;;;;;;5043309;28;20448;-71
2022/05/10 07:05:59;;;;;;;4.93;2.97;;;17.10;99.90;;;;;;5035118;28;20124;-74
2022/05/10 07:08:26;;;;;;;7.28;3.45;;;17.10;99.90;;;;;;5022719;28;20221;-73
2022/05/10 07:10:51;;;;;;;6.15;3.40;;;17.20;99.90;;;;;;5015155;28;20351;-71
2022/05/10 07:13:23;;;;;;;6.33;3.30;;;17.30;99.90;;;;;;5044697;28;20044;-77
2022/05/10 07:15:49;;;;;;;6.55;3.53;;;17.40;99.90;;;;;;5041501;28;21279;-70
2022/05/10 07:18:16;;;;;;;6.40;3.13;;;17.50;99.90;;;;;;5031847;28;20261;-69
2022/05/10 07:20:43;;;;;;;4.97;2.80;;;17.50;99.90;;;;;;5025510;28;20024;-70
2022/05/10 07:23:10;;;;;;;6.25;2.92;;;17.50;99.90;;;;;;5004722;28;20180;-70
2022/05/10 07:25:36;;;;;;;6.82;3.20;;;17.60;99.90;;;;;;5013715;28;20182;-71
2022/05/10 07:28:02;;;;;;;;;;;17.60;99.90;;;;;;5036236;28;20300;-70
2022/05/10 07:30:28;;;;;;;5.88;2.83;;;17.70;99.90;;;;;;5034107;28;19950;-70
2022/05/10 07:32:54;;;;;;;7.60;2.90;;;17.70;99.90;;;;;;5038019;28;20037;-70
2022/05/10 07:36:23;;;;;;;6.43;3.55;;;17.80;99.90;;;;;;5040942;28;20059;-70
2022/05/10 07:38:09;;;;;;;5.05;3.10;;;17.80;99.90;;;;;;5032642;28;20032;-70
2022/05/10 07:40:35;;;;;;;5.65;2.97;;;17.90;99.90;;;;;;5034010;28;20282;-71
2022/05/10 07:43:00;;;;;;;5.45;2.47;;;17.90;99.90;;;;;;5036693;28;20138;-70
2022/05/10 07:45:26;;;;;;;7.70;2.78;;;18.00;99.90;;;;;;5019009;28;20052;-70
2022/05/10 07:47:52;;;;;;;8.13;3.05;;;18.00;99.90;;;;;;5022425;28;20041;-73
2022/05/10 07:50:18;;;;;;;6.82;2.95;;;18.00;99.90;;;;;;5036598;28;20032;-80
2022/05/10 07:52:44;;;;;;;4.72;2.72;;;18.10;99.90;;;;;;5018875;28;20218;-70
2022/05/10 07:55:12;;;;;;;4.97;2.30;;;18.20;99.90;;;;;;5025896;28;20049;-70
2022/05/10 07:57:39;;;;;;;3.78;2.33;;;18.20;99.90;;;;;;5016317;28;20028;-70
2022/05/10 08:00:08;;;;;;;6.45;2.55;;;18.30;99.90;;;;;;5034532;28;20044;-70
2022/05/10 08:02:35;;;;;;;5.18;2.45;;;18.30;99.90;;;;;;5037583;28;20298;-70
2022/05/10 08:05:02;;;;;;;3.92;2.28;;;18.40;99.90;;;;;;5034214;28;20493;-70
2022/05/10 08:07:28;;;;;;;3.80;2.28;;;18.50;99.90;;;;;;5013642;28;20126;-70
2022/05/10 08:09:54;;;;;;;3.35;1.95;;;18.50;99.90;;;;;;5032367;28;20489;-70
2022/05/10 08:12:20;;;;;;;4.78;2.13;;;18.60;99.90;;;;;;5032189;28;20145;-70
2022/05/10 08:14:46;;;;;;;6.88;2.80;;;18.70;99.40;;;;;;5040199;28;20092;-70
2022/05/10 08:17:11;;;;;;;3.85;2.40;;;18.80;98.80;;;;;;5034426;28;20044;-70
2022/05/10 08:19:37;;;;;;;3.97;2.30;;;18.90;98.80;;;;;;5037075;28;20496;-70
2022/05/10 08:22:03;;;;;;;3.92;2.53;;;18.90;98.20;;;;;;5024115;28;20486;-70
2022/05/10 08:24:28;;;;;;;4.68;2.13;;;19.00;97.50;;;;;;5039656;28;20045;-70
2022/05/10 08:26:54;;;;;;;6.45;2.55;;;19.10;98.10;;;;;;5036726;28;20143;-70
2022/05/10 08:29:19;;;;;;;3.88;1.95;;;19.20;97.90;;;;;;5042280;28;20456;-70
2022/05/10 08:31:45;;;;;;;3.75;2.00;;;19.20;97.10;;;;;;5018892;28;20041;-70
2022/05/10 08:34:11;;;;;;;4.43;2.42;;;19.30;97.20;;;;;;5041159;28;20497;-70
2022/05/10 08:36:36;;;;;;;4.20;2.00;;;19.30;96.10;;;;;;5027214;28;20064;-70
2022/05/10 08:39:02;;;;;;;4.43;1.90;;;19.40;95.60;;;;;;5032248;28;20049;-70
2022/05/10 08:41:37;;;;;;;5.97;2.25;;;19.50;95.70;;;;;;5029504;28;20037;-70
2022/05/10 08:44:27;;;;;;;3.92;1.75;;;19.50;95.30;;;;;;5039110;28;20078;-70
2022/05/10 08:47:06;;;;;;;4.28;1.80;;;19.60;95.10;;;;;;5026932;28;20131;-70
2022/05/10 08:49:46;;;;;;;5.32;2.30;;;19.70;94.80;;;;;;5013622;28;20037;-70
2022/05/10 08:52:15;;;;;;;4.30;2.10;;;19.70;92.10;;;;;;5032797;28;20049;-70
2022/05/10 08:54:42;;;;;;;3.60;2.05;;;19.80;93.70;;;;;;5023928;28;20049;-70
2022/05/10 08:57:19;;;;;;;3.63;2.08;;;19.90;94.10;;;;;;5009077;28;20147;-70
2022/05/10 09:00:07;;;;;;;3.25;1.80;;;20.00;92.80;;;;;;5030337;28;20048;-70
2022/05/10 09:02:39;;;;;;;5.63;2.90;;;20.00;91.90;;;;;;5031653;28;20044;-70
2022/05/10 09:05:28;;;;;;;3.05;1.52;;;20.00;91.10;;;;;;5013551;28;20060;-71
2022/05/10 09:08:03;;;;;;;4.90;2.15;;;20.10;86.10;;;;;;5037585;28;20056;-71
2022/05/10 09:10:38;;;;;;;4.97;2.40;;;20.20;90.20;;;;;;5038936;28;20459;-71
2022/05/10 09:13:08;;;;;;;5.13;2.33;;;20.30;89.40;;;;;;5047477;28;20161;-71
2022/05/10 09:15:55;;;;;;;5.22;2.22;;;20.40;89.40;;;;;;5037486;28;20150;-70
2022/05/10 09:18:28;;;;;;;7.25;2.85;;;20.50;88.60;;;;;;5041633;28;20110;-71
2022/05/10 09:21:00;;;;;;;4.18;2.42;;;20.50;84.00;;;;;;5016512;28;20136;-69
2022/05/10 09:23:35;;;;;;;4.95;2.53;;;20.60;84.90;;;;;;5039885;28;20144;-70
2022/05/10 09:26:02;;;;;;;6.00;2.38;;;20.70;84.40;;;;;;5034146;28;20072;-70
2022/05/10 09:28:58;;;;;;;3.25;2.15;;;20.70;85.00;;;;;;5026206;28;20033;-70
2022/05/10 09:37:31;;;;;;;4.00;2.55;;;21.00;84.00;;;;;;5026803;28;20048;-72
2022/05/10 09:39:56;;;;;;;4.53;2.30;;;21.10;83.70;;;;;;5036132;28;20068;-72
2022/05/10 09:42:28;;;;;;;3.58;2.47;;;21.00;83.10;;;;;;5025678;28;20045;-70
2022/05/10 09:45:03;;;;;;;4.63;2.92;;;21.00;82.40;;;;;;5030857;28;20045;-71
2022/05/10 09:47:30;;;;;;;5.40;3.13;;;21.00;82.70;;;;;;5043467;28;20485;-71
2022/05/10 09:50:12;;;;;;;5.07;2.88;;;21.10;82.50;;;;;;5034008;28;20045;-71
2022/05/10 09:52:38;;;;;;;8.48;3.72;;;21.10;79.00;;;;;;5018046;28;20522;-73
2022/05/10 09:55:12;;;;;;;6.53;2.90;;;21.10;81.20;;;;;;5044624;28;20048;-73
2022/05/10 09:57:40;;;;;;;4.07;2.80;;;21.20;82.50;;;;;;5042595;28;20120;-70
2022/05/10 10:00:11;;;;;;;5.30;3.28;;;21.20;81.20;;;;;;5043111;28;20460;-71
2022/05/10 10:02:39;;;;;;;5.40;3.45;;;21.30;81.40;;;;;;5039513;28;20659;-70
2022/05/10 10:05:31;;;;;;;7.88;3.40;;;21.40;81.80;;;;;;5040519;28;20521;-73
2022/05/10 10:07:58;;;;;;;5.72;3.25;;;21.50;79.80;;;;;;5024039;28;20054;-74
2022/05/10 10:10:37;;;;;;;9.10;2.95;;;21.60;77.70;;;;;;5021921;28;20056;-72
2022/05/10 10:13:27;;;;;;;7.00;3.03;;;21.70;74.20;;;;;;5014012;28;20120;-71
2022/05/10 10:15:53;;;;;;;5.35;2.30;;;21.70;74.40;;;;;;5028037;28;20384;-74
2022/05/10 10:18:45;;;;;;;6.25;2.90;;;21.80;75.20;;;;;;5046334;28;20041;-76
2022/05/10 10:21:34;;;;;;;4.22;2.60;;;21.80;72.60;;;;;;5032082;28;20041;-72
2022/05/10 10:24:01;;;;;;;4.72;2.55;;;21.90;72.80;;;;;;5021129;28;20049;-76
2022/05/10 10:26:45;;;;;;;7.10;3.95;;;21.90;70.90;;;;;;5045202;28;20445;-73
2022/05/10 10:29:24;;;;;;;5.90;2.38;;;21.80;68.30;;;;;;5040012;28;20132;-76
2022/05/10 10:31:58;;;;;;;4.13;2.25;;;21.80;69.80;;;;;;5039963;28;20479;-72
2022/05/10 10:34:42;;;;;;;5.32;2.88;;;21.80;69.50;;;;;;5041840;28;20457;-71
2022/05/10 10:37:20;;;;;;;7.15;2.95;;;21.70;69.50;;;;;;5049430;28;20150;-74
2022/05/10 10:39:55;;;;;;;3.20;1.75;;;21.60;67.90;;;;;;5048884;28;20056;-77
2022/05/10 10:42:40;;;;;;;5.20;3.00;;;21.60;68.90;;;;;;5042602;28;20045;-73
2022/05/10 10:45:12;;;;;;;6.70;2.90;;;21.50;69.50;;;;;;5031574;28;20043;-74
2022/05/10 10:47:48;;;;;;;4.75;3.03;;;21.40;69.70;;;;;;5038176;28;20040;-70
2022/05/10 10:50:29;;;;;;;7.10;3.35;;;21.30;69.60;;;;;;5007433;28;20083;-71
2022/05/10 10:52:57;;;;;;;3.88;2.83;;;21.20;71.40;;;;;;5026595;28;20048;-70
2022/05/10 10:55:43;;;;;;;6.80;2.67;;;21.10;73.40;;;;;;5020745;28;20131;-70
2022/05/10 10:58:54;;;;;;;5.68;3.05;;;21.10;75.80;;;;;;5031480;28;20555;-71
2022/05/10 11:01:28;;;;;;;5.15;3.40;;;21.10;79.00;;;;;;4980927;28;20056;-71
2022/05/10 11:04:00;;;;;;;6.72;3.33;;;21.00;80.20;;;;;;5018839;28;20048;-71
2022/05/10 11:06:37;;;;;;;9.25;3.80;;;21.00;82.30;;;;;;5044637;28;20501;-71
2022/05/10 11:09:16;;;;;;;6.28;4.22;;;21.10;81.40;;;;;;5021049;28;20300;-72
2022/05/10 11:11:59;;;;;;;5.80;4.00;;;21.00;82.50;;;;;;5036267;28;20098;-71
2022/05/10 11:14:36;;;;;;;6.43;3.90;;;21.10;85.30;;;;;;5021449;28;20113;-71
2022/05/10 11:17:32;;;;;;;6.60;3.20;;;21.20;85.80;;;;;;5021325;28;20068;-72
2022/05/10 11:20:22;;;;;;;6.60;4.03;;;21.20;86.40;;;;;;5038783;28;20426;-71
2022/05/10 11:22:58;;;;;;;6.10;3.25;;;21.20;88.10;;;;;;5031700;28;20099;-71
2022/05/10 11:25:27;;;;;;;5.23;3.80;;;21.30;90.20;;;;;;5032618;28;20072;-71
2022/05/10 11:27:52;;;;;;;5.22;3.47;;;21.40;90.10;;;;;;5038429;28;20135;-71
2022/05/10 11:30:27;;;;;;;11.82;4.25;;;21.50;89.90;;;;;;5035319;28;20125;-71
2022/05/10 11:33:20;;;;;;;6.60;4.28;;;21.50;90.10;;;;;;5042756;28;20333;-71
2022/05/10 11:36:05;;;;;;;6.75;3.60;;;21.60;91.00;;;;;;5019537;28;20053;-71
2022/05/10 11:38:55;;;;;;;5.93;2.97;;;21.70;91.10;;;;;;5014821;28;20041;-71
2022/05/10 11:41:46;;;;;;;4.93;2.72;;;21.80;86.90;;;;;;5025145;28;20072;-71
2022/05/10 11:44:30;;;;;;;4.10;2.50;;;21.70;82.50;;;;;;5016026;28;20041;-71
2022/05/10 11:47:23;;;;;;;4.32;2.47;;;21.80;84.70;;;;;;5012238;28;20060;-71
2022/05/10 11:50:09;;;;;;;5.22;2.50;;;21.80;84.60;;;;;;5037231;28;20057;-72
2022/05/10 11:52:56;;;;;;;3.75;2.25;;;21.80;78.00;;;;;;5029162;28;20126;-71
2022/05/10 11:55:42;;;;;;;2.92;1.67;;;21.70;75.90;;;;;;5040118;28;20564;-71
2022/05/10 11:58:09;;;;;;;4.57;1.98;;;21.70;77.20;;;;;;5020367;28;20048;-72
2022/05/10 12:00:34;;;;;;;3.17;1.65;;;21.60;77.40;;;;;;5032576;28;20049;-71
2022/05/10 12:03:12;;;;;;;4.72;1.63;;;21.60;77.80;;;;;;5032063;28;20038;-71
2022/05/10 12:05:39;;;;;;;7.25;1.90;;;21.60;78.10;;;;;;5011095;28;20489;-71
2022/05/10 12:08:19;;;;;;;3.50;1.73;;;21.60;78.30;;;;;;5026498;28;20450;-71
2022/05/10 12:10:46;;;;;;;3.55;1.88;;;21.60;75.70;;;;;;5024562;28;20045;-71
2022/05/10 12:22:20;;;;;;;3.17;1.40;;;21.90;62.50;;;;;;5028043;28;20132;-71
2022/05/10 12:24:51;;;;;;;3.17;2.03;;;21.90;63.30;;;;;;5031413;28;20048;-72
2022/05/10 12:27:17;;;;;;;3.28;2.00;;;21.90;63.40;;;;;;5016683;28;20052;-71
2022/05/10 12:29:42;;;;;;;9.10;1.52;;;21.80;63.70;;;;;;5013186;28;20045;-71
2022/05/10 12:32:09;;;;;;;7.45;1.90;;;21.70;65.10;;;;;;5037739;28;20559;-71
2022/05/10 12:34:44;;;;;;;5.78;1.73;;;21.60;66.30;;;;;;5024130;28;20049;-71
2022/05/10 12:37:24;;;;;;;5.50;1.50;;;21.50;67.30;;;;;;5036449;28;20537;-72
2022/05/10 12:50:52;;;;;;;3.13;0.50;;;21.20;58.70;;;;;;4996726;28;20072;-86
2022/05/10 13:08:38;;;;;;;3.40;0.60;;;20.60;46.20;;;;;;4944083;28;20069;-83
2022/05/10 13:11:52;;;;;;;1.88;0.50;;;20.50;48.60;;;;;;4958103;28;20089;-85
2022/05/10 13:14:27;;;;;;;2.00;0.50;;;20.50;49.80;;;;;;4966645;28;20524;-84
2022/05/10 13:16:59;;;;;;;0.65;0.30;;;20.40;50.60;;;;;;4977057;28;20117;-85
2022/05/10 13:20:15;;;;;;;3.10;0.50;;;20.30;51.60;;;;;;4957483;28;20038;-83
2022/05/10 13:30:21;;;;;;;4.97;0.50;;;20.20;51.60;;;;;;4915265;28;20506;-85
2022/05/10 13:44:43;;;;;;;;;;;;;;;;;;;;;
2022/05/10 13:52:32;;;;;;;2.08;1.00;;;19.80;57.50;;;;;;4968555;28;20057;-85
2022/05/10 14:15:18;;;;;;;1.83;0.82;;;19.10;67.00;;;;;;4893419;29;20128;-84
2022/05/10 14:29:32;;;;;;;2.03;1.33;;;18.70;65.20;;;;;;4975534;28;20130;-84
2022/05/10 14:33:00;;;;;;;3.03;0.93;;;18.60;67.60;;;;;;4945282;28;20447;-85
2022/05/10 14:36:21;;;;;;;2.00;0.95;;;18.60;71.30;;;;;;5002906;28;20144;-85
2022/05/10 14:41:47;;;;;;;5.28;1.40;;;18.60;72.90;;;;;;5053742;22;20451;-69
2022/05/10 14:44:20;;;;;;;3.25;1.13;;;18.60;75.90;;;;;;5040837;28;20052;-70
2022/05/10 14:46:51;;;;;;;2.00;1.05;;;18.50;75.30;;;;;;5037176;28;20034;-70
2022/05/10 14:49:34;;;;;;;3.97;1.23;;;18.50;76.30;;;;;;5041982;28;20728;-69
2022/05/10 14:52:03;;;;;;;3.30;1.30;;;18.40;77.70;;;;;;5034051;28;20672;-70
2022/05/10 14:54:37;;;;;;;2.15;0.85;;;18.30;79.10;;;;;;5041882;28;20117;-70
2022/05/10 14:57:04;;;;;;;5.40;1.15;;;18.20;81.20;;;;;;5037626;28;20081;-69
2022/05/10 14:59:54;;;;;;;2.83;1.17;;;18.20;80.80;;;;;;5043287;28;20119;-69
2022/05/10 15:02:30;;;;;;;3.53;1.40;;;18.10;84.30;;;;;;5043320;28;20083;-69